createdAt,value
2023-02-18T00:00:39.158Z,3.70
2023-02-18T00:01:39.158Z,4.30
2023-02-18T00:02:39.176Z,3.80
2023-02-18T00:03:39.167Z,4.20
2023-02-18T00:04:39.120Z,3.60
2023-02-18T00:05:39.123Z,3.80
2023-02-18T00:06:39.098Z,3.80
2023-02-18T00:07:39.104Z,3.30
2023-02-18T00:08:39.059Z,4.00
2023-02-18T00:09:39.043Z,3.90
2023-02-18T00:10:39.079Z,3.70
2023-02-18T00:11:39.051Z,3.70
2023-02-18T00:12:39.006Z,3.60
2023-02-18T00:13:38.997Z,3.60
2023-02-18T00:14:39.012Z,4.30
2023-02-18T00:15:39.009Z,4.00
2023-02-18T00:16:38.960Z,3.70
2023-02-18T00:17:38.946Z,3.70
2023-02-18T00:18:38.918Z,4.00
2023-02-18T00:19:38.940Z,3.80
2023-02-18T00:20:38.906Z,3.90
2023-02-18T00:21:38.890Z,3.70
2023-02-18T00:22:38.872Z,3.50
2023-02-18T00:23:38.863Z,3.90
2023-02-18T00:24:38.863Z,3.60
2023-02-18T00:25:38.845Z,3.70
2023-02-18T00:26:38.807Z,3.30
2023-02-18T00:27:38.815Z,2.90
2023-02-18T00:28:38.785Z,3.60
2023-02-18T00:29:38.801Z,2.80
2023-02-18T00:30:38.760Z,3.50
2023-02-18T00:31:38.867Z,3.30
2023-02-18T00:32:38.739Z,3.30
2023-02-18T00:33:38.716Z,3.50
2023-02-18T00:34:38.720Z,3.30
2023-02-18T00:35:38.685Z,3.50
2023-02-18T00:36:38.692Z,3.30
2023-02-18T00:37:38.666Z,3.40
2023-02-18T00:38:38.653Z,3.80
2023-02-18T00:39:38.625Z,3.10
2023-02-18T00:40:38.657Z,3.40
2023-02-18T00:41:38.634Z,2.90
2023-02-18T00:42:38.599Z,3.20
2023-02-18T00:43:38.587Z,3.30
2023-02-18T00:44:38.581Z,3.00
2023-02-18T00:45:38.553Z,3.20
2023-02-18T00:46:38.614Z,3.00
2023-02-18T00:47:38.519Z,3.00
2023-02-18T00:48:38.517Z,3.00
2023-02-18T00:49:38.499Z,3.50
2023-02-18T00:50:38.521Z,3.10
2023-02-18T00:51:38.493Z,3.30
2023-02-18T00:52:38.467Z,3.10
2023-02-18T00:53:38.447Z,4.00
2023-02-18T00:54:38.439Z,3.10
2023-02-18T00:55:38.426Z,3.10
2023-02-18T00:56:38.432Z,3.60
2023-02-18T00:57:38.403Z,3.50
2023-02-18T00:58:38.379Z,4.10
2023-02-18T00:59:38.371Z,3.60
2023-02-18T01:00:38.370Z,3.20
2023-02-18T01:01:38.405Z,3.70
2023-02-18T01:02:38.350Z,3.80
2023-02-18T01:03:38.315Z,3.90
2023-02-18T01:04:38.364Z,4.00
2023-02-18T01:05:38.284Z,4.60
2023-02-18T01:06:38.318Z,4.60
2023-02-18T01:07:38.265Z,4.80
2023-02-18T01:08:38.237Z,5.50
2023-02-18T01:09:38.242Z,4.60
2023-02-18T01:10:38.216Z,4.30
2023-02-18T01:11:38.252Z,5.00
2023-02-18T01:12:38.190Z,4.50
2023-02-18T01:13:38.177Z,4.40
2023-02-18T01:14:38.180Z,5.50
2023-02-18T01:15:38.178Z,5.20
2023-02-18T01:16:38.143Z,6.00
2023-02-18T01:17:38.142Z,6.20
2023-02-18T01:18:38.117Z,7.20
2023-02-18T01:19:38.133Z,4.70
2023-02-18T01:20:38.096Z,5.10
2023-02-18T01:21:38.089Z,5.20
2023-02-18T01:22:38.074Z,4.00
2023-02-18T01:23:38.068Z,4.30
2023-02-18T01:24:38.052Z,4.00
2023-02-18T01:25:38.024Z,3.90
2023-02-18T01:26:38.067Z,3.60
2023-02-18T01:27:37.990Z,3.80
2023-02-18T01:28:38.005Z,3.70
2023-02-18T01:29:37.973Z,5.90
2023-02-18T01:30:37.990Z,3.60
2023-02-18T01:31:38.075Z,3.40
2023-02-18T01:32:37.965Z,3.50
2023-02-18T01:33:37.904Z,3.50
2023-02-18T01:34:37.917Z,4.00
2023-02-18T01:35:37.912Z,3.50
2023-02-18T01:36:37.880Z,3.90
2023-02-18T01:37:37.868Z,3.30
2023-02-18T01:38:37.843Z,3.90
2023-02-18T01:39:37.829Z,4.20
2023-02-18T01:40:37.850Z,4.10
2023-02-18T01:41:37.800Z,3.70
2023-02-18T01:42:37.792Z,4.20
2023-02-18T01:43:37.814Z,4.40
2023-02-18T01:44:37.756Z,4.50
2023-02-18T01:45:37.779Z,3.90
2023-02-18T01:46:37.772Z,5.20
2023-02-18T01:47:37.740Z,5.70
2023-02-18T01:48:39.601Z,6.50
2023-02-18T01:49:37.697Z,5.70
2023-02-18T01:50:37.677Z,6.20
2023-02-18T01:51:37.696Z,6.90
2023-02-18T01:52:37.651Z,5.30
2023-02-18T01:53:37.634Z,6.10
2023-02-18T01:54:37.627Z,5.50
2023-02-18T01:55:37.621Z,5.50
2023-02-18T01:56:37.636Z,5.30
2023-02-18T01:57:37.598Z,6.10
2023-02-18T01:58:37.577Z,5.60
2023-02-18T01:59:37.564Z,6.30
2023-02-18T02:00:37.606Z,5.60
2023-02-18T02:01:37.612Z,6.30
2023-02-18T02:02:37.530Z,6.00
2023-02-18T02:03:37.499Z,5.50
2023-02-18T02:04:37.521Z,5.50
2023-02-18T02:05:37.487Z,5.40
2023-02-18T02:06:37.456Z,5.60
2023-02-18T02:07:37.456Z,6.10
2023-02-18T02:08:37.444Z,7.10
2023-02-18T02:09:37.448Z,8.00
2023-02-18T02:10:37.395Z,6.70
2023-02-18T02:11:37.410Z,6.00
2023-02-18T02:12:37.376Z,5.70
2023-02-18T02:13:37.374Z,6.20
2023-02-18T02:14:37.386Z,5.30
2023-02-18T02:15:37.380Z,4.70
2023-02-18T02:16:37.432Z,5.80
2023-02-18T02:17:37.320Z,6.20
2023-02-18T02:18:37.310Z,5.30
2023-02-18T02:19:37.280Z,6.40
2023-02-18T02:20:37.294Z,5.20
2023-02-18T02:21:37.282Z,5.00
2023-02-18T02:22:37.279Z,4.70
2023-02-18T02:23:37.258Z,4.60
2023-02-18T02:24:37.227Z,4.80
2023-02-18T02:25:37.259Z,4.80
2023-02-18T02:26:37.186Z,4.70
2023-02-18T02:27:37.168Z,4.60
2023-02-18T02:28:37.157Z,4.40
2023-02-18T02:29:37.163Z,5.20
2023-02-18T02:30:37.213Z,4.10
2023-02-18T02:31:37.205Z,4.90
2023-02-18T02:32:37.126Z,4.20
2023-02-18T02:33:37.148Z,5.50
2023-02-18T02:34:37.094Z,6.10
2023-02-18T02:35:37.115Z,5.30
2023-02-18T02:36:37.058Z,4.40
2023-02-18T02:37:37.056Z,5.20
2023-02-18T02:38:37.045Z,4.30
2023-02-18T02:39:37.010Z,4.60
2023-02-18T02:40:37.039Z,4.50
2023-02-18T02:41:37.036Z,4.80
2023-02-18T02:42:36.999Z,4.40
2023-02-18T02:43:36.977Z,5.00
2023-02-18T02:44:36.962Z,5.10
2023-02-18T02:45:36.966Z,6.50
2023-02-18T02:46:36.974Z,4.40
2023-02-18T02:47:36.943Z,4.80
2023-02-18T02:48:36.915Z,4.70
2023-02-18T02:49:36.920Z,4.80
2023-02-18T02:50:36.876Z,5.90
2023-02-18T02:51:36.886Z,4.70
2023-02-18T02:52:36.857Z,6.40
2023-02-18T02:53:36.833Z,7.10
2023-02-18T02:54:36.874Z,8.10
2023-02-18T02:55:36.796Z,6.60
2023-02-18T02:56:36.819Z,7.70
2023-02-18T02:57:36.785Z,6.90
2023-02-18T02:58:36.773Z,7.60
2023-02-18T02:59:36.749Z,6.30
2023-02-18T03:00:36.754Z,11.90
2023-02-18T03:01:36.765Z,5.50
2023-02-18T03:02:36.718Z,6.90
2023-02-18T03:03:36.701Z,7.60
2023-02-18T03:04:36.686Z,6.80
2023-02-18T03:05:36.695Z,8.30
2023-02-18T03:06:36.658Z,7.40
2023-02-18T03:07:36.651Z,6.70
2023-02-18T03:08:36.711Z,5.70
2023-02-18T03:09:36.626Z,5.30
2023-02-18T03:10:36.626Z,4.90
2023-02-18T03:11:36.598Z,5.70
2023-02-18T03:12:36.591Z,5.40
2023-02-18T03:13:36.561Z,6.20
2023-02-18T03:14:36.557Z,5.30
2023-02-18T03:15:36.546Z,6.10
2023-02-18T03:16:36.671Z,5.20
2023-02-18T03:17:36.521Z,5.80
2023-02-18T03:18:36.534Z,5.30
2023-02-18T03:19:36.509Z,5.90
2023-02-18T03:20:36.494Z,5.50
2023-02-18T03:21:36.456Z,6.40
2023-02-18T03:22:36.455Z,5.60
2023-02-18T03:23:36.466Z,5.70
2023-02-18T03:24:36.426Z,5.50
2023-02-18T03:25:36.443Z,6.10
2023-02-18T03:26:36.388Z,7.90
2023-02-18T03:27:36.391Z,6.40
2023-02-18T03:28:36.362Z,5.60
2023-02-18T03:29:36.377Z,6.90
2023-02-18T03:30:36.392Z,7.30
2023-02-18T03:31:36.430Z,7.10
2023-02-18T03:32:36.322Z,6.90
2023-02-18T03:33:36.309Z,6.10
2023-02-18T03:34:36.306Z,6.50
2023-02-18T03:35:36.261Z,6.00
2023-02-18T03:36:36.261Z,6.50
2023-02-18T03:37:36.247Z,6.90
2023-02-18T03:38:36.261Z,6.20
2023-02-18T03:39:36.254Z,7.70
2023-02-18T03:40:36.207Z,7.00
2023-02-18T03:41:36.194Z,5.90
2023-02-18T03:42:36.168Z,6.40
2023-02-18T03:43:36.166Z,6.60
2023-02-18T03:44:36.172Z,6.70
2023-02-18T03:45:36.146Z,6.50
2023-02-18T03:46:36.126Z,8.20
2023-02-18T03:47:36.107Z,6.30
2023-02-18T03:48:36.093Z,6.40
2023-02-18T03:49:36.110Z,7.10
2023-02-18T03:50:36.091Z,6.60
2023-02-18T03:51:36.073Z,6.60
2023-02-18T03:52:36.028Z,8.10
2023-02-18T03:53:36.015Z,6.80
2023-02-18T03:54:36.051Z,7.00
2023-02-18T03:55:36.023Z,7.20
2023-02-18T03:56:35.970Z,6.70
2023-02-18T03:57:35.973Z,7.70
2023-02-18T03:58:35.945Z,7.30
2023-02-18T03:59:35.960Z,6.50
2023-02-18T04:00:35.924Z,6.90
2023-02-18T04:01:36.049Z,7.10
2023-02-18T04:02:35.905Z,7.20
2023-02-18T04:03:35.880Z,8.80
2023-02-18T04:04:35.948Z,8.50
2023-02-18T04:05:35.870Z,8.20
2023-02-18T04:06:35.858Z,7.10
2023-02-18T04:07:35.876Z,7.50
2023-02-18T04:08:35.807Z,6.80
2023-02-18T04:09:35.881Z,8.20
2023-02-18T04:10:35.792Z,6.80
2023-02-18T04:11:35.769Z,7.70
2023-02-18T04:12:35.808Z,7.20
2023-02-18T04:13:35.748Z,7.30
2023-02-18T04:14:35.769Z,7.00
2023-02-18T04:15:35.740Z,7.40
2023-02-18T04:16:35.764Z,7.30
2023-02-18T04:17:35.699Z,9.90
2023-02-18T04:18:35.735Z,8.10
2023-02-18T04:19:35.684Z,8.10
2023-02-18T04:20:35.652Z,7.80
2023-02-18T04:21:35.690Z,6.90
2023-02-18T04:22:35.626Z,7.80
2023-02-18T04:23:35.622Z,6.80
2023-02-18T04:24:35.601Z,7.80
2023-02-18T04:25:35.613Z,7.60
2023-02-18T04:26:35.604Z,7.90
2023-02-18T04:27:35.569Z,7.50
2023-02-18T04:28:35.575Z,7.80
2023-02-18T04:29:35.570Z,7.50
2023-02-18T04:30:35.662Z,9.30
2023-02-18T04:31:35.717Z,11.60
2023-02-18T04:32:35.593Z,8.50
2023-02-18T04:33:35.488Z,8.20
2023-02-18T04:34:35.465Z,8.50
2023-02-18T04:35:35.495Z,9.10
2023-02-18T04:36:35.481Z,9.30
2023-02-18T04:37:35.429Z,7.20
2023-02-18T04:38:35.442Z,8.30
2023-02-18T04:39:35.467Z,7.40
2023-02-18T04:40:35.435Z,7.20
2023-02-18T04:41:35.390Z,7.40
2023-02-18T04:42:35.396Z,11.30
2023-02-18T04:43:35.376Z,11.40
2023-02-18T04:44:35.359Z,8.80
2023-02-18T04:45:35.324Z,7.90
2023-02-18T04:46:35.416Z,7.20
2023-02-18T04:47:35.305Z,7.10
2023-02-18T04:48:35.361Z,8.30
2023-02-18T04:49:35.321Z,8.10
2023-02-18T04:50:35.317Z,9.80
2023-02-18T04:51:35.267Z,11.30
2023-02-18T04:52:35.227Z,10.20
2023-02-18T04:53:35.238Z,8.90
2023-02-18T04:54:35.213Z,8.50
2023-02-18T04:55:35.226Z,10.40
2023-02-18T04:56:35.181Z,9.90
2023-02-18T04:57:35.168Z,8.90
2023-02-18T04:58:35.152Z,10.20
2023-02-18T04:59:35.144Z,14.30
2023-02-18T05:00:35.161Z,11.10
2023-02-18T05:01:35.185Z,8.70
2023-02-18T05:02:35.108Z,8.40
2023-02-18T05:03:35.084Z,7.70
2023-02-18T05:04:35.073Z,8.50
2023-02-18T05:05:35.127Z,9.00
2023-02-18T05:06:35.061Z,9.00
2023-02-18T05:07:35.050Z,8.80
2023-02-18T05:08:35.033Z,9.80
2023-02-18T05:09:35.011Z,10.10
2023-02-18T05:10:35.028Z,8.90
2023-02-18T05:11:34.985Z,9.10
2023-02-18T05:12:34.980Z,11.60
2023-02-18T05:13:34.993Z,8.40
2023-02-18T05:14:34.940Z,10.00
2023-02-18T05:15:35.047Z,15.00
2023-02-18T05:16:34.921Z,12.00
2023-02-18T05:17:34.912Z,13.50
2023-02-18T05:18:34.897Z,16.90
2023-02-18T05:19:34.899Z,20.10
2023-02-18T05:20:34.901Z,14.60
2023-02-18T05:21:34.896Z,10.40
2023-02-18T05:22:34.856Z,9.90
2023-02-18T05:23:34.857Z,9.90
2023-02-18T05:24:34.824Z,9.00
2023-02-18T05:25:34.846Z,10.30
2023-02-18T05:26:34.908Z,16.30
2023-02-18T05:27:34.816Z,9.10
2023-02-18T05:28:34.768Z,11.10
2023-02-18T05:29:34.756Z,11.60
2023-02-18T05:30:34.884Z,11.10
2023-02-18T05:31:34.926Z,11.50
2023-02-18T05:32:34.736Z,13.10
2023-02-18T05:33:34.732Z,12.30
2023-02-18T05:34:34.811Z,10.70
2023-02-18T05:35:34.793Z,9.90
2023-02-18T05:36:34.685Z,10.30
2023-02-18T05:37:34.648Z,12.20
2023-02-18T05:38:34.659Z,17.70
2023-02-18T05:39:34.664Z,31.00
2023-02-18T05:40:34.635Z,19.90
2023-02-18T05:41:34.651Z,16.80
2023-02-18T05:42:34.622Z,10.80
2023-02-18T05:43:34.574Z,15.00
2023-02-18T05:44:34.615Z,12.70
2023-02-18T05:45:34.566Z,16.30
2023-02-18T05:46:34.734Z,20.60
2023-02-18T05:47:34.508Z,14.00
2023-02-18T05:48:34.521Z,10.50
2023-02-18T05:49:34.518Z,10.10
2023-02-18T05:50:34.509Z,10.90
2023-02-18T05:51:34.526Z,9.20
2023-02-18T05:52:34.455Z,9.10
2023-02-18T05:53:34.470Z,9.60
2023-02-18T05:54:34.427Z,10.40
2023-02-18T05:55:34.441Z,9.40
2023-02-18T05:56:34.389Z,10.40
2023-02-18T05:57:34.412Z,8.60
2023-02-18T05:58:34.358Z,8.50
2023-02-18T05:59:34.353Z,10.60
2023-02-18T06:00:34.368Z,15.00
2023-02-18T06:01:34.338Z,11.00
2023-02-18T06:02:34.427Z,12.70
2023-02-18T06:03:34.319Z,12.60
2023-02-18T06:04:34.291Z,13.00
2023-02-18T06:05:34.388Z,15.00
2023-02-18T06:06:34.266Z,11.70
2023-02-18T06:07:34.310Z,12.10
2023-02-18T06:08:34.285Z,11.60
2023-02-18T06:09:34.214Z,12.60
2023-02-18T06:10:34.286Z,12.40
2023-02-18T06:11:34.191Z,11.90
2023-02-18T06:12:34.220Z,11.70
2023-02-18T06:13:34.179Z,12.10
2023-02-18T06:14:34.161Z,11.80
2023-02-18T06:15:34.139Z,11.30
2023-02-18T06:16:34.181Z,12.80
2023-02-18T06:17:34.162Z,12.90
2023-02-18T06:18:34.122Z,13.00
2023-02-18T06:19:34.111Z,10.10
2023-02-18T06:20:34.073Z,10.80
2023-02-18T06:21:34.105Z,10.10
2023-02-18T06:22:34.112Z,14.60
2023-02-18T06:23:34.034Z,12.50
2023-02-18T06:24:34.020Z,18.70
2023-02-18T06:25:34.013Z,12.80
2023-02-18T06:26:34.004Z,15.20
2023-02-18T06:27:34.024Z,15.30
2023-02-18T06:28:33.978Z,14.00
2023-02-18T06:29:34.032Z,13.00
2023-02-18T06:30:34.030Z,11.60
2023-02-18T06:31:34.021Z,11.10
2023-02-18T06:32:33.909Z,10.90
2023-02-18T06:33:33.901Z,10.10
2023-02-18T06:34:34.080Z,10.60
2023-02-18T06:35:33.903Z,9.50
2023-02-18T06:36:33.886Z,10.50
2023-02-18T06:37:33.851Z,11.00
2023-02-18T06:38:33.890Z,11.20
2023-02-18T06:39:33.820Z,10.80
2023-02-18T06:40:33.862Z,9.50
2023-02-18T06:41:33.901Z,10.70
2023-02-18T06:42:33.789Z,11.20
2023-02-18T06:43:33.783Z,11.60
2023-02-18T06:44:33.777Z,11.90
2023-02-18T06:45:33.736Z,15.70
2023-02-18T06:46:33.794Z,17.80
2023-02-18T06:47:33.745Z,15.40
2023-02-18T06:48:33.755Z,11.30
2023-02-18T06:49:33.705Z,10.90
2023-02-18T06:50:33.866Z,9.70
2023-02-18T06:51:33.705Z,10.20
2023-02-18T06:52:33.658Z,10.50
2023-02-18T06:53:33.638Z,9.80
2023-02-18T06:54:33.614Z,10.80
2023-02-18T06:55:33.619Z,9.90
2023-02-18T06:56:33.626Z,15.60
2023-02-18T06:57:33.582Z,12.80
2023-02-18T06:58:33.577Z,12.30
2023-02-18T06:59:33.564Z,12.20
2023-02-18T07:00:33.620Z,12.30
2023-02-18T07:01:33.564Z,11.00
2023-02-18T07:02:33.509Z,14.40
2023-02-18T07:03:33.546Z,13.60
2023-02-18T07:04:33.523Z,40.40
2023-02-18T07:05:33.478Z,43.60
2023-02-18T07:06:33.495Z,24.90
2023-02-18T07:07:33.492Z,19.30
2023-02-18T07:08:33.453Z,14.80
2023-02-18T07:09:33.422Z,15.80
2023-02-18T07:10:33.431Z,13.90
2023-02-18T07:11:33.399Z,11.90
2023-02-18T07:12:33.430Z,12.30
2023-02-18T07:13:33.375Z,14.20
2023-02-18T07:14:33.399Z,13.00
2023-02-18T07:15:33.372Z,12.30
2023-02-18T07:16:33.409Z,14.10
2023-02-18T07:17:33.354Z,12.30
2023-02-18T07:18:33.335Z,13.70
2023-02-18T07:19:33.308Z,13.10
2023-02-18T07:20:33.315Z,15.90
2023-02-18T07:21:33.456Z,15.90
2023-02-18T07:22:33.284Z,19.30
2023-02-18T07:23:33.232Z,18.50
2023-02-18T07:24:33.238Z,17.80
2023-02-18T07:25:33.220Z,15.20
2023-02-18T07:26:33.196Z,13.90
2023-02-18T07:27:33.223Z,12.90
2023-02-18T07:28:33.201Z,15.00
2023-02-18T07:29:33.175Z,14.50
2023-02-18T07:30:33.198Z,16.70
2023-02-18T07:31:33.310Z,17.50
2023-02-18T07:32:33.146Z,15.30
2023-02-18T07:33:33.100Z,16.40
2023-02-18T07:34:33.093Z,17.20
2023-02-18T07:35:33.115Z,15.20
2023-02-18T07:36:33.066Z,15.50
2023-02-18T07:37:33.094Z,17.00
2023-02-18T07:38:33.121Z,13.70
2023-02-18T07:39:33.037Z,13.60
2023-02-18T07:40:33.031Z,14.10
2023-02-18T07:41:33.036Z,14.10
2023-02-18T07:42:33.018Z,11.20
2023-02-18T07:43:33.000Z,9.70
2023-02-18T07:44:32.977Z,11.80
2023-02-18T07:45:33.023Z,13.60
2023-02-18T07:46:32.978Z,12.40
2023-02-18T07:47:32.956Z,12.30
2023-02-18T07:48:32.908Z,11.80
2023-02-18T07:49:32.898Z,9.30
2023-02-18T07:50:32.891Z,9.40
2023-02-18T07:51:32.879Z,9.40
2023-02-18T07:52:32.908Z,9.70
2023-02-18T07:53:32.854Z,12.10
2023-02-18T07:54:32.820Z,10.00
2023-02-18T07:55:32.822Z,26.60
2023-02-18T07:56:32.808Z,125.40
2023-02-18T07:57:32.793Z,42.80
2023-02-18T07:58:32.778Z,9.70
2023-02-18T07:59:32.765Z,15.10
2023-02-18T08:00:32.758Z,8.80
2023-02-18T08:01:32.741Z,7.90
2023-02-18T08:02:32.746Z,12.00
2023-02-18T08:03:32.721Z,12.40
2023-02-18T08:04:32.740Z,10.90
2023-02-18T08:05:32.691Z,9.00
2023-02-18T08:06:32.696Z,8.70
2023-02-18T08:07:32.642Z,10.40
2023-02-18T08:08:34.576Z,9.70
2023-02-18T08:09:32.626Z,9.80
2023-02-18T08:10:32.604Z,7.60
2023-02-18T08:11:32.598Z,7.80
2023-02-18T08:12:32.608Z,8.30
2023-02-18T08:13:32.620Z,6.30
2023-02-18T08:14:32.576Z,6.20
2023-02-18T08:15:32.552Z,5.40
2023-02-18T08:16:32.579Z,7.10
2023-02-18T08:17:32.575Z,5.50
2023-02-18T08:18:32.516Z,6.80
2023-02-18T08:19:32.513Z,6.10
2023-02-18T08:20:32.530Z,5.90
2023-02-18T08:21:32.497Z,5.30
2023-02-18T08:22:32.459Z,6.10
2023-02-18T08:23:32.448Z,6.20
2023-02-18T08:24:32.482Z,6.20
2023-02-18T08:25:32.418Z,6.10
2023-02-18T08:26:32.417Z,5.30
2023-02-18T08:27:32.402Z,5.50
2023-02-18T08:28:32.396Z,4.70
2023-02-18T08:29:32.401Z,5.50
2023-02-18T08:30:32.611Z,5.20
2023-02-18T08:31:32.604Z,5.40
2023-02-18T08:32:32.341Z,6.00
2023-02-18T08:33:32.325Z,5.90
2023-02-18T08:34:32.306Z,6.10
2023-02-18T08:35:32.325Z,6.30
2023-02-18T08:36:32.311Z,6.00
2023-02-18T08:37:53.859Z,5.90
2023-02-18T08:38:32.262Z,5.60
2023-02-18T08:39:32.356Z,5.30
2023-02-18T08:40:32.251Z,5.20
2023-02-18T08:41:32.215Z,5.30
2023-02-18T08:42:32.208Z,5.50
2023-02-18T08:43:32.181Z,5.30
2023-02-18T08:44:32.202Z,5.00
2023-02-18T08:45:33.179Z,4.80
2023-02-18T08:46:35.603Z,5.10
2023-02-18T08:48:19.231Z,5.40
2023-02-18T08:48:32.162Z,5.80
2023-02-18T08:49:32.133Z,5.30
2023-02-18T08:50:32.148Z,5.10
2023-02-18T08:51:32.094Z,5.50
2023-02-18T08:52:32.096Z,5.20
2023-02-18T08:53:32.047Z,5.50
2023-02-18T08:54:32.051Z,5.50
2023-02-18T08:55:32.043Z,6.30
2023-02-18T08:56:32.058Z,5.20
2023-02-18T08:57:32.045Z,5.20
2023-02-18T08:58:31.993Z,5.40
2023-02-18T08:59:31.977Z,5.20
2023-02-18T09:00:31.950Z,6.40
2023-02-18T09:01:32.142Z,5.40
2023-02-18T09:02:31.933Z,4.40
2023-02-18T09:03:31.949Z,4.90
2023-02-18T09:04:31.984Z,4.40
2023-02-18T09:05:31.889Z,4.80
2023-02-18T09:06:31.892Z,4.30
2023-02-18T09:07:31.846Z,5.00
2023-02-18T09:08:31.850Z,4.60
2023-02-18T09:09:31.857Z,4.50
2023-02-18T09:10:31.822Z,4.20
2023-02-18T09:11:31.843Z,5.50
2023-02-18T09:12:31.822Z,4.00
2023-02-18T09:13:31.791Z,3.80
2023-02-18T09:14:31.808Z,3.90
2023-02-18T09:15:31.809Z,4.30
2023-02-18T09:16:31.770Z,3.90
2023-02-18T09:17:31.739Z,3.70
2023-02-18T09:18:31.750Z,4.30
2023-02-18T09:19:31.694Z,3.60
2023-02-18T09:20:31.689Z,3.70
2023-02-18T09:21:31.779Z,4.20
2023-02-18T09:22:31.657Z,3.70
2023-02-18T09:23:31.675Z,4.50
2023-02-18T09:24:31.633Z,5.40
2023-02-18T09:25:31.648Z,4.70
2023-02-18T09:26:31.647Z,4.30
2023-02-18T09:27:31.577Z,3.40
2023-02-18T09:28:31.585Z,3.40
2023-02-18T09:29:31.585Z,3.70
2023-02-18T09:30:31.641Z,3.40
2023-02-18T09:31:31.645Z,3.30
2023-02-18T09:32:35.585Z,3.30
2023-02-18T09:33:31.515Z,3.60
2023-02-18T09:34:31.533Z,3.10
2023-02-18T09:35:31.479Z,3.60
2023-02-18T09:36:31.509Z,3.10
2023-02-18T09:37:31.481Z,3.20
2023-02-18T09:38:31.449Z,4.00
2023-02-18T09:39:31.493Z,3.00
2023-02-18T09:40:31.415Z,2.80
2023-02-18T09:41:31.429Z,2.80
2023-02-18T09:42:31.443Z,2.80
2023-02-18T09:43:31.411Z,2.80
2023-02-18T09:44:31.383Z,3.20
2023-02-18T09:45:31.373Z,2.80
2023-02-18T09:46:31.399Z,3.10
2023-02-18T09:47:31.340Z,3.10
2023-02-18T09:48:31.327Z,2.80
2023-02-18T09:49:31.418Z,3.10
2023-02-18T09:50:31.293Z,2.60
2023-02-18T09:51:31.281Z,2.80
2023-02-18T09:52:31.278Z,3.10
2023-02-18T09:53:31.259Z,4.20
2023-02-18T09:54:31.256Z,4.40
2023-02-18T09:55:31.204Z,3.00
2023-02-18T09:56:31.198Z,3.30
2023-02-18T09:57:31.226Z,3.10
2023-02-18T09:58:31.195Z,3.00
2023-02-18T09:59:31.186Z,2.80
2023-02-18T10:00:31.151Z,2.70
2023-02-18T10:01:31.159Z,2.80
2023-02-18T10:02:31.116Z,3.50
2023-02-18T10:03:31.166Z,2.70
2023-02-18T10:04:31.120Z,2.50
2023-02-18T10:05:31.122Z,2.90
2023-02-18T10:06:31.071Z,2.40
2023-02-18T10:07:31.090Z,2.70
2023-02-18T10:08:31.096Z,2.60
2023-02-18T10:09:31.051Z,3.00
2023-02-18T10:10:31.014Z,3.20
2023-02-18T10:11:31.024Z,2.50
2023-02-18T10:12:30.993Z,2.50
2023-02-18T10:13:31.023Z,2.40
2023-02-18T10:14:30.997Z,2.60
2023-02-18T10:15:30.969Z,2.50
2023-02-18T10:16:31.041Z,2.40
2023-02-18T10:17:30.922Z,2.70
2023-02-18T10:19:30.914Z,4.20
2023-02-18T10:20:30.889Z,2.80
2023-02-18T10:21:30.867Z,2.60
2023-02-18T10:22:30.915Z,3.60
2023-02-18T10:23:30.870Z,2.50
2023-02-18T10:24:30.817Z,3.70
2023-02-18T10:25:30.875Z,2.30
2023-02-18T10:26:30.818Z,3.10
2023-02-18T10:27:30.820Z,2.40
2023-02-18T10:28:30.766Z,2.50
2023-02-18T10:29:30.768Z,3.40
2023-02-18T10:30:30.857Z,4.40
2023-02-18T10:31:30.848Z,3.00
2023-02-18T10:32:30.715Z,2.60
2023-02-18T10:33:30.712Z,3.10
2023-02-18T10:34:30.738Z,2.90
2023-02-18T10:35:30.712Z,2.80
2023-02-18T10:36:30.710Z,3.00
2023-02-18T10:37:30.682Z,3.50
2023-02-18T10:38:30.640Z,3.10
2023-02-18T10:39:30.642Z,2.60
2023-02-18T10:40:30.640Z,2.60
2023-02-18T10:41:30.604Z,2.70
2023-02-18T10:42:30.600Z,2.60
2023-02-18T10:43:30.607Z,2.50
2023-02-18T10:44:30.556Z,2.60
2023-02-18T10:45:30.556Z,2.20
2023-02-18T10:46:30.660Z,2.40
2023-02-18T10:47:30.545Z,2.40
2023-02-18T10:48:30.556Z,3.00
2023-02-18T10:49:30.486Z,2.70
2023-02-18T10:50:30.505Z,2.50
2023-02-18T10:51:30.478Z,2.50
2023-02-18T10:52:30.491Z,2.90
2023-02-18T10:53:30.439Z,2.30
2023-02-18T10:54:30.454Z,2.70
2023-02-18T10:55:30.456Z,2.50
2023-02-18T10:56:30.437Z,2.60
2023-02-18T10:57:30.384Z,2.60
2023-02-18T10:58:30.374Z,4.20
2023-02-18T10:59:30.399Z,2.30
2023-02-18T11:00:30.350Z,2.70
2023-02-18T11:01:30.435Z,2.70
2023-02-18T11:02:30.334Z,3.70
2023-02-18T11:03:30.321Z,3.00
2023-02-18T11:04:30.366Z,3.10
2023-02-18T11:05:30.274Z,5.00
2023-02-18T11:06:30.269Z,5.80
2023-02-18T11:07:30.255Z,5.10
2023-02-18T11:08:30.257Z,4.40
2023-02-18T11:09:30.249Z,6.30
2023-02-18T11:10:30.206Z,4.10
2023-02-18T11:11:30.201Z,4.30
2023-02-18T11:12:30.176Z,6.70
2023-02-18T11:13:30.189Z,7.10
2023-02-18T11:14:30.205Z,4.30
2023-02-18T11:15:30.157Z,3.60
2023-02-18T11:16:30.142Z,3.10
2023-02-18T11:17:30.114Z,3.60
2023-02-18T11:18:30.137Z,2.70
2023-02-18T11:19:30.087Z,3.10
2023-02-18T11:20:30.126Z,8.30
2023-02-18T11:21:30.077Z,4.70
2023-02-18T11:22:30.033Z,2.30
2023-02-18T11:23:30.075Z,4.20
2023-02-18T11:24:30.034Z,5.70
2023-02-18T11:25:30.036Z,3.20
2023-02-18T11:26:30.116Z,3.00
2023-02-18T11:27:29.983Z,4.40
2023-02-18T11:28:30.002Z,3.40
2023-02-18T11:29:29.963Z,2.60
2023-02-18T11:30:30.072Z,2.40
2023-02-18T11:31:29.983Z,3.00
2023-02-18T11:32:29.925Z,4.20
2023-02-18T11:33:29.900Z,3.20
2023-02-18T11:34:29.898Z,3.50
2023-02-18T11:35:29.885Z,2.60
2023-02-18T11:36:29.908Z,2.10
2023-02-18T11:37:29.865Z,2.60
2023-02-18T11:38:29.857Z,1.90
2023-02-18T11:39:29.858Z,2.50
2023-02-18T11:40:29.803Z,2.00
2023-02-18T11:41:29.796Z,2.60
2023-02-18T11:42:29.792Z,2.10
2023-02-18T11:43:29.765Z,2.00
2023-02-18T11:44:29.786Z,1.80
2023-02-18T11:45:29.752Z,2.00
2023-02-18T11:46:29.832Z,2.40
2023-02-18T11:47:29.731Z,2.30
2023-02-18T11:48:29.698Z,2.00
2023-02-18T11:49:29.707Z,2.10
2023-02-18T11:50:29.683Z,2.20
2023-02-18T11:51:29.684Z,3.90
2023-02-18T11:52:29.648Z,2.90
2023-02-18T11:53:29.647Z,3.10
2023-02-18T11:54:29.621Z,2.90
2023-02-18T11:55:29.661Z,2.60
2023-02-18T11:56:29.608Z,2.50
2023-02-18T11:57:29.604Z,2.70
2023-02-18T11:58:29.573Z,2.90
2023-02-18T11:59:29.563Z,4.40
2023-02-18T12:00:30.163Z,2.80
2023-02-18T12:01:29.544Z,2.30
2023-02-18T12:02:29.540Z,2.70
2023-02-18T12:03:29.577Z,1.90
2023-02-18T12:04:29.507Z,3.00
2023-02-18T12:05:29.589Z,3.30
2023-02-18T12:06:29.504Z,6.10
2023-02-18T12:07:29.456Z,3.90
2023-02-18T12:08:29.450Z,3.00
2023-02-18T12:09:29.439Z,2.10
2023-02-18T12:10:29.473Z,2.80
2023-02-18T12:11:29.422Z,2.20
2023-02-18T12:12:29.404Z,2.40
2023-02-18T12:13:29.399Z,1.90
2023-02-18T12:14:29.387Z,2.70
2023-02-18T12:15:29.366Z,2.60
2023-02-18T12:16:29.397Z,2.40
2023-02-18T12:17:29.329Z,2.70
2023-02-18T12:18:29.313Z,2.50
2023-02-18T12:19:29.308Z,2.50
2023-02-18T12:20:29.306Z,9.80
2023-02-18T12:21:29.305Z,3.00
2023-02-18T12:22:29.290Z,5.20
2023-02-18T12:23:29.266Z,2.40
2023-02-18T12:24:29.276Z,1.80
2023-02-18T12:25:29.235Z,2.70
2023-02-18T12:26:29.236Z,1.80
2023-02-18T12:27:29.198Z,2.40
2023-02-18T12:28:29.197Z,1.90
2023-02-18T12:29:29.226Z,2.00
2023-02-18T12:30:29.223Z,2.00
2023-02-18T12:31:29.273Z,2.10
2023-02-18T12:32:29.173Z,3.00
2023-02-18T12:33:29.115Z,1.80
2023-02-18T12:34:29.114Z,1.60
2023-02-18T12:35:29.108Z,2.40
2023-02-18T12:36:29.097Z,1.60
2023-02-18T12:37:29.099Z,3.00
2023-02-18T12:38:29.055Z,2.00
2023-02-18T12:39:29.046Z,1.80
2023-02-18T12:40:29.077Z,2.40
2023-02-18T12:41:29.115Z,2.20
2023-02-18T12:42:29.013Z,2.50
2023-02-18T12:43:28.992Z,2.80
2023-02-18T12:44:28.994Z,5.50
2023-02-18T12:45:28.959Z,4.30
2023-02-18T12:46:28.965Z,7.30
2023-02-18T12:47:28.942Z,4.50
2023-02-18T12:48:28.950Z,3.20
2023-02-18T12:49:28.957Z,2.70
2023-02-18T12:50:28.909Z,2.90
2023-02-18T12:51:30.449Z,4.10
2023-02-18T12:52:28.934Z,1.80
2023-02-18T12:53:28.854Z,3.30
2023-02-18T12:54:28.848Z,1.70
2023-02-18T12:55:28.858Z,3.50
2023-02-18T12:56:28.817Z,1.90
2023-02-18T12:57:28.811Z,1.60
2023-02-18T12:58:28.787Z,2.10
2023-02-18T12:59:28.791Z,2.10
2023-02-18T13:00:30.397Z,1.80
2023-02-18T13:01:28.881Z,1.90
2023-02-18T13:02:28.736Z,1.90
2023-02-18T13:03:28.774Z,3.30
2023-02-18T13:04:28.717Z,2.60
2023-02-18T13:05:28.706Z,2.00
2023-02-18T13:06:28.713Z,2.60
2023-02-18T13:07:28.670Z,3.60
2023-02-18T13:08:28.674Z,2.30
2023-02-18T13:09:28.655Z,1.80
2023-02-18T13:10:28.631Z,1.80
2023-02-18T13:11:28.657Z,1.80
2023-02-18T13:12:28.606Z,1.60
2023-02-18T13:13:28.635Z,1.70
2023-02-18T13:14:28.590Z,1.70